Bagdad, Florida
Current Conditions -  °F | °C
As of 12:56 PM on Wednesday 17 Dec 2014 (Local Time) from KNDZ Reporting Station
Broken Clouds Broken Clouds  
Wind Chill: 59°   Ceiling: 25000
Heat Index: 59°   Visibility: 10mi
Dew Point: 39°   Wind: 7mph
Humidity: 48%   Direction: 300°WNW
Pressure: 30.19"   Gusts: NA
Location:  30.6°N, 87.04°W
Report Text: KNDZ 171856Z 30006KT 10SM FEW040 BKN250 15/04 A3019 RMK AO2 SLP213 T01500039
Loading
Personal Weather Stations






























Interactive Weather Map New forecast layout! Learn more

10-Day Weather Forecast

Advertisements
Track Severe Weather on mobile